createdAt,value
2023-05-06T00:01:07.880Z,10.60
2023-05-06T00:03:35.669Z,10.70
2023-05-06T00:06:05.958Z,11.00
2023-05-06T00:08:33.404Z,10.50
2023-05-06T00:11:00.891Z,9.60
2023-05-06T00:13:28.427Z,10.80
2023-05-06T00:15:56.003Z,9.40
2023-05-06T00:18:23.544Z,9.60
2023-05-06T00:20:51.107Z,9.50
2023-05-06T00:23:18.563Z,9.20
2023-05-06T00:25:46.016Z,9.50
2023-05-06T00:28:13.471Z,9.90
2023-05-06T00:30:41.044Z,9.70
2023-05-06T00:33:08.515Z,8.80
2023-05-06T00:35:36.193Z,9.50
2023-05-06T00:38:11.505Z,10.10
2023-05-06T00:40:39.877Z,9.70
2023-05-06T00:43:07.727Z,9.40
2023-05-06T00:45:38.388Z,10.50
2023-05-06T00:48:07.358Z,10.10
2023-05-06T00:50:35.585Z,10.00
2023-05-06T00:53:05.058Z,10.20
2023-05-06T00:55:32.724Z,10.50
2023-05-06T00:58:00.684Z,9.50
2023-05-06T01:00:28.259Z,10.30
2023-05-06T01:02:56.180Z,10.10
2023-05-06T01:05:29.370Z,10.80
2023-05-06T01:08:29.358Z,9.80
2023-05-06T01:11:06.860Z,9.80
2023-05-06T01:13:49.856Z,11.10
2023-05-06T01:16:21.591Z,11.50
2023-05-06T01:21:21.550Z,10.60
2023-05-06T01:23:57.423Z,12.30
2023-05-06T01:26:24.962Z,10.10
2023-05-06T01:28:53.955Z,10.70
2023-05-06T01:31:44.298Z,9.80
2023-05-06T01:34:26.864Z,10.00
2023-05-06T01:37:25.881Z,10.80
2023-05-06T01:39:58.315Z,11.00
2023-05-06T01:42:28.950Z,9.80
2023-05-06T01:44:57.036Z,9.80
2023-05-06T01:47:25.472Z,9.50
2023-05-06T01:49:53.191Z,9.80
2023-05-06T01:52:21.966Z,10.80
2023-05-06T01:54:49.325Z,10.40
2023-05-06T01:57:16.992Z,10.20
2023-05-06T01:59:44.681Z,9.80
2023-05-06T02:02:12.315Z,10.00
2023-05-06T02:04:39.887Z,10.50
2023-05-06T02:07:07.543Z,9.60
2023-05-06T02:09:35.001Z,11.80
2023-05-06T02:12:04.192Z,12.00
2023-05-06T02:14:31.761Z,10.60
2023-05-06T02:17:07.127Z,10.80
2023-05-06T02:19:34.466Z,10.90
2023-05-06T02:22:02.019Z,11.50
2023-05-06T02:24:29.784Z,9.90
2023-05-06T02:26:57.231Z,10.50
2023-05-06T02:29:24.693Z,11.70
2023-05-06T02:31:52.598Z,9.80
2023-05-06T02:34:20.230Z,10.70
2023-05-06T02:36:47.790Z,11.20
2023-05-06T02:39:16.069Z,11.10
2023-05-06T02:41:43.622Z,11.30
2023-05-06T02:44:12.210Z,10.60
2023-05-06T02:46:39.767Z,11.40
2023-05-06T02:49:07.327Z,10.80
2023-05-06T02:51:34.789Z,10.70
2023-05-06T02:54:02.349Z,11.00
2023-05-06T02:56:30.724Z,11.10
2023-05-06T02:58:58.286Z,11.30
2023-05-06T03:01:25.777Z,11.30
2023-05-06T03:03:53.397Z,10.40
2023-05-06T03:06:21.169Z,11.90
2023-05-06T03:08:48.646Z,11.30
2023-05-06T03:11:16.235Z,10.00
2023-05-06T03:13:43.773Z,10.00
2023-05-06T03:16:13.639Z,11.50
2023-05-06T03:18:42.263Z,12.00
2023-05-06T03:21:11.801Z,11.30
2023-05-06T03:23:40.337Z,11.60
2023-05-06T03:26:07.801Z,10.70
2023-05-06T03:28:35.375Z,11.40
2023-05-06T03:31:03.508Z,11.30
2023-05-06T03:33:31.728Z,11.40
2023-05-06T03:35:59.581Z,11.90
2023-05-06T03:38:27.573Z,12.00
2023-05-06T03:40:59.508Z,11.50
2023-05-06T03:43:27.489Z,11.60
2023-05-06T03:45:58.363Z,11.40
2023-05-06T03:48:25.781Z,11.40
2023-05-06T03:50:53.842Z,12.10
2023-05-06T03:53:21.647Z,11.90
2023-05-06T03:55:49.478Z,12.30
2023-05-06T03:58:17.249Z,12.10
2023-05-06T04:00:45.827Z,12.80
2023-05-06T04:03:13.419Z,12.00
2023-05-06T04:05:48.426Z,12.90
2023-05-06T04:08:17.037Z,13.70
2023-05-06T04:10:45.491Z,13.40
2023-05-06T04:13:29.838Z,13.10
2023-05-06T04:15:59.160Z,13.20
2023-05-06T04:18:32.448Z,11.30
2023-05-06T04:21:02.678Z,10.70
2023-05-06T04:23:30.946Z,11.60
2023-05-06T04:25:59.327Z,11.20
2023-05-06T04:28:27.804Z,10.30
2023-05-06T04:30:56.178Z,11.80
2023-05-06T04:33:27.062Z,10.60
2023-05-06T04:35:56.421Z,11.40
2023-05-06T04:38:25.334Z,11.40
2023-05-06T04:40:53.283Z,12.00
2023-05-06T04:43:21.080Z,12.00
2023-05-06T04:45:49.823Z,12.00
2023-05-06T04:48:22.005Z,13.70
2023-05-06T04:50:52.645Z,12.20
2023-05-06T04:53:20.207Z,12.20
2023-05-06T04:55:47.773Z,12.40
2023-05-06T04:58:16.061Z,12.80
2023-05-06T05:00:44.426Z,12.20
2023-05-06T05:03:12.266Z,10.70
2023-05-06T05:05:40.078Z,12.10
2023-05-06T05:08:13.549Z,12.30
2023-05-06T05:10:43.089Z,12.50
2023-05-06T05:13:11.511Z,12.60
2023-05-06T05:15:39.615Z,11.30
2023-05-06T05:18:07.316Z,13.00
2023-05-06T05:20:35.164Z,12.90
2023-05-06T05:23:03.827Z,12.50
2023-05-06T05:25:31.802Z,12.10
2023-05-06T05:27:59.357Z,11.40
2023-05-06T05:30:27.025Z,12.40
2023-05-06T05:32:55.160Z,10.90
2023-05-06T05:35:22.858Z,10.70
2023-05-06T05:37:51.381Z,11.70
2023-05-06T05:40:19.527Z,12.30
2023-05-06T05:42:48.746Z,11.30
2023-05-06T05:47:49.726Z,11.10
2023-05-06T05:50:17.461Z,12.30
2023-05-06T05:52:46.225Z,12.30
2023-05-06T05:55:14.301Z,11.40
2023-05-06T05:57:42.691Z,11.70
2023-05-06T06:00:13.479Z,10.10
2023-05-06T06:02:47.297Z,9.50
2023-05-06T06:05:18.358Z,10.10
2023-05-06T06:07:47.253Z,10.70
2023-05-06T06:10:15.026Z,10.80
2023-05-06T06:12:44.316Z,9.20
2023-05-06T06:15:12.690Z,8.90
2023-05-06T06:17:41.549Z,10.00
2023-05-06T06:20:10.570Z,9.60
2023-05-06T06:22:38.244Z,9.30
2023-05-06T06:25:06.879Z,6.60
2023-05-06T06:27:37.468Z,6.70
2023-05-06T06:30:06.455Z,6.40
2023-05-06T06:32:33.859Z,7.00
2023-05-06T06:35:01.344Z,6.90
2023-05-06T06:37:29.551Z,7.50
2023-05-06T06:39:57.110Z,6.90
2023-05-06T06:42:24.681Z,7.50
2023-05-06T06:45:00.939Z,7.90
2023-05-06T06:47:28.428Z,7.90
2023-05-06T06:49:55.948Z,7.20
2023-05-06T06:52:23.842Z,6.30
2023-05-06T06:54:52.203Z,7.00
2023-05-06T06:57:20.499Z,6.90
2023-05-06T06:59:49.980Z,6.70
2023-05-06T07:02:17.767Z,7.00
2023-05-06T07:04:45.429Z,6.30
2023-05-06T07:07:13.696Z,6.40
2023-05-06T07:09:41.141Z,5.50
2023-05-06T07:12:08.813Z,3.80
2023-05-06T07:14:37.608Z,4.80
2023-05-06T07:17:05.222Z,3.70
2023-05-06T07:19:33.131Z,3.90
2023-05-06T07:22:02.522Z,3.80
2023-05-06T07:24:29.836Z,3.60
2023-05-06T07:26:57.352Z,3.40
2023-05-06T07:29:25.649Z,3.10
2023-05-06T07:31:53.175Z,2.40
2023-05-06T07:34:20.740Z,3.20
2023-05-06T07:36:48.299Z,2.90
2023-05-06T07:39:15.877Z,3.10
2023-05-06T07:41:43.444Z,3.20
2023-05-06T07:44:11.101Z,2.60
2023-05-06T07:46:38.856Z,2.80
2023-05-06T07:49:06.324Z,3.00
2023-05-06T07:51:33.842Z,3.00
2023-05-06T07:54:01.391Z,3.20
2023-05-06T07:56:28.945Z,2.70
2023-05-06T07:58:56.349Z,3.20
2023-05-06T08:01:24.952Z,3.30
2023-05-06T08:03:52.551Z,4.00
2023-05-06T08:06:20.568Z,2.80
2023-05-06T08:08:48.030Z,2.80
2023-05-06T08:11:16.984Z,2.70
2023-05-06T08:13:46.723Z,2.60
2023-05-06T08:16:14.535Z,2.30
2023-05-06T08:18:42.155Z,2.40
2023-05-06T08:21:09.736Z,2.40
2023-05-06T08:23:37.480Z,2.20
2023-05-06T08:26:05.397Z,2.20
2023-05-06T08:28:32.960Z,2.10
2023-05-06T08:31:00.688Z,2.00
2023-05-06T08:33:30.305Z,1.90
2023-05-06T08:35:58.486Z,1.80
2023-05-06T08:38:26.790Z,2.20
2023-05-06T08:40:54.543Z,1.80
2023-05-06T08:43:25.853Z,2.20
2023-05-06T08:45:54.669Z,2.00
2023-05-06T08:48:22.119Z,1.80
2023-05-06T08:50:51.506Z,2.10
2023-05-06T08:53:18.985Z,2.20
2023-05-06T08:55:49.487Z,2.00
2023-05-06T08:58:18.384Z,2.00
2023-05-06T09:00:46.556Z,2.30
2023-05-06T09:03:14.375Z,1.80
2023-05-06T09:05:42.290Z,2.00
2023-05-06T09:08:11.585Z,2.10
2023-05-06T09:10:46.237Z,2.00
2023-05-06T09:13:15.906Z,1.80
2023-05-06T09:15:48.605Z,2.60
2023-05-06T09:18:17.078Z,2.20
2023-05-06T09:20:47.911Z,1.70
2023-05-06T09:23:17.746Z,1.70
2023-05-06T09:25:47.152Z,1.80
2023-05-06T09:28:14.921Z,1.50
2023-05-06T09:30:47.002Z,1.70
2023-05-06T09:33:14.488Z,2.00
2023-05-06T09:35:43.879Z,1.80
2023-05-06T09:38:11.195Z,1.80
2023-05-06T09:40:39.100Z,2.00
2023-05-06T09:43:07.340Z,1.90
2023-05-06T09:45:35.893Z,1.70
2023-05-06T09:48:04.702Z,1.90
2023-05-06T09:50:32.380Z,1.90
2023-05-06T09:53:03.128Z,1.70
2023-05-06T09:55:30.882Z,1.90
2023-05-06T09:58:00.282Z,1.70
2023-05-06T10:00:30.211Z,1.90
2023-05-06T10:02:59.087Z,1.80
2023-05-06T10:05:28.563Z,1.80
2023-05-06T10:07:57.700Z,1.70
2023-05-06T10:10:28.126Z,1.70
2023-05-06T10:12:56.012Z,1.40
2023-05-06T10:15:25.820Z,1.50
2023-05-06T10:17:55.255Z,1.60
2023-05-06T10:20:26.013Z,1.70
2023-05-06T10:23:12.847Z,2.00
2023-05-06T10:25:45.296Z,1.90
2023-05-06T10:28:21.072Z,2.10
2023-05-06T10:30:59.818Z,1.60
2023-05-06T10:33:28.043Z,1.50
2023-05-06T10:36:11.220Z,1.30
2023-05-06T10:38:48.812Z,1.60
2023-05-06T10:41:17.550Z,1.60
2023-05-06T10:43:45.497Z,3.30
2023-05-06T10:46:17.947Z,1.40
2023-05-06T10:51:43.762Z,1.60
2023-05-06T10:54:17.786Z,1.90
2023-05-06T10:56:48.754Z,2.20
2023-05-06T10:59:24.295Z,1.80
2023-05-06T11:02:06.823Z,2.00
2023-05-06T11:04:34.891Z,1.60
2023-05-06T11:07:15.032Z,1.50
2023-05-06T11:10:10.925Z,1.60
2023-05-06T11:12:49.786Z,1.90
2023-05-06T11:15:26.851Z,1.80
2023-05-06T11:17:56.323Z,1.50
2023-05-06T11:20:26.071Z,1.30
2023-05-06T11:22:54.249Z,1.40
2023-05-06T11:25:42.725Z,1.40
2023-05-06T11:28:15.265Z,1.60
2023-05-06T11:33:21.439Z,1.60
2023-05-06T11:37:08.015Z,1.40
2023-05-06T11:39:40.580Z,2.00
2023-05-06T11:42:10.039Z,1.50
2023-05-06T11:44:40.179Z,1.50
2023-05-06T11:47:09.631Z,1.40
2023-05-06T11:49:41.981Z,1.30
2023-05-06T11:52:13.104Z,1.30
2023-05-06T11:54:42.931Z,1.80
2023-05-06T11:57:12.008Z,1.40
2023-05-06T11:59:41.692Z,1.70
2023-05-06T12:02:13.868Z,1.40
2023-05-06T12:04:44.799Z,1.60
2023-05-06T12:07:15.648Z,1.30
2023-05-06T12:09:49.210Z,1.30
2023-05-06T12:12:24.333Z,1.20
2023-05-06T12:14:54.307Z,1.30
2023-05-06T12:17:23.813Z,1.40
2023-05-06T12:19:52.703Z,1.40
2023-05-06T12:22:24.868Z,1.90
2023-05-06T12:27:31.824Z,1.80
2023-05-06T12:30:01.160Z,1.70
2023-05-06T12:32:31.705Z,1.50
2023-05-06T12:35:05.996Z,1.80
2023-05-06T12:37:34.904Z,1.70
2023-05-06T12:40:04.415Z,1.50
2023-05-06T12:42:33.199Z,1.40
2023-05-06T12:45:14.986Z,1.50
2023-05-06T12:47:57.465Z,1.30
2023-05-06T12:50:42.488Z,1.60
2023-05-06T12:53:14.666Z,1.90
2023-05-06T12:55:43.621Z,2.10
2023-05-06T12:58:19.843Z,1.40
2023-05-06T13:00:48.617Z,1.50
2023-05-06T13:03:19.542Z,1.40
2023-05-06T13:05:50.509Z,1.40
2023-05-06T13:08:19.478Z,1.50
2023-05-06T13:10:48.366Z,1.40
2023-05-06T13:13:17.381Z,1.60
2023-05-06T13:15:46.179Z,1.70
2023-05-06T13:18:14.938Z,1.40
2023-05-06T13:20:43.689Z,1.20
2023-05-06T13:23:12.604Z,1.40
2023-05-06T13:25:52.053Z,1.80
2023-05-06T13:28:29.647Z,1.30
2023-05-06T13:30:58.578Z,1.50
2023-05-06T13:33:27.641Z,2.70
2023-05-06T13:35:56.525Z,1.70
2023-05-06T13:38:25.443Z,1.40
2023-05-06T13:40:54.508Z,1.40
2023-05-06T13:43:26.382Z,1.60
2023-05-06T13:45:55.299Z,1.80
2023-05-06T13:48:24.249Z,1.50
2023-05-06T13:50:53.149Z,2.00
2023-05-06T13:53:22.541Z,1.80
2023-05-06T13:55:51.218Z,1.50
2023-05-06T13:58:19.882Z,1.60
2023-05-06T14:00:49.428Z,1.50
2023-05-06T14:03:18.156Z,1.30
2023-05-06T14:05:46.817Z,1.60
2023-05-06T14:08:15.579Z,1.60
2023-05-06T14:10:44.468Z,1.70
2023-05-06T14:13:13.183Z,1.60
2023-05-06T14:15:42.086Z,1.90
2023-05-06T14:18:10.936Z,2.50
2023-05-06T14:20:39.667Z,1.70
2023-05-06T14:23:08.594Z,1.50
2023-05-06T14:25:37.309Z,1.50
2023-05-06T14:28:06.579Z,1.50
2023-05-06T14:30:35.974Z,1.30
2023-05-06T14:33:05.618Z,1.70
2023-05-06T14:35:34.337Z,2.10
2023-05-06T14:38:03.395Z,1.40
2023-05-06T14:40:32.102Z,1.50
2023-05-06T14:43:00.814Z,2.20
2023-05-06T14:45:29.595Z,1.90
2023-05-06T14:47:58.431Z,1.50
2023-05-06T14:50:27.212Z,1.70
2023-05-06T14:52:55.987Z,1.60
2023-05-06T14:55:25.215Z,2.20
2023-05-06T14:57:53.997Z,2.90
2023-05-06T15:00:22.824Z,3.20
2023-05-06T15:02:51.551Z,1.50
2023-05-06T15:05:20.452Z,2.30
2023-05-06T15:07:49.294Z,1.90
2023-05-06T15:10:18.491Z,2.30
2023-05-06T15:12:47.316Z,2.10
2023-05-06T15:15:16.278Z,2.20
2023-05-06T15:17:45.253Z,1.30
2023-05-06T15:20:14.292Z,1.30
2023-05-06T15:22:43.159Z,1.70
2023-05-06T15:25:19.324Z,1.70
2023-05-06T15:27:55.480Z,1.60
2023-05-06T15:30:24.392Z,2.00
2023-05-06T15:32:53.315Z,1.70
2023-05-06T15:35:22.679Z,1.90
2023-05-06T15:37:58.763Z,1.30
2023-05-06T15:40:27.722Z,1.60
2023-05-06T15:42:57.035Z,1.50
2023-05-06T15:45:26.301Z,1.40
2023-05-06T15:47:56.412Z,1.60
2023-05-06T15:50:33.408Z,1.90
2023-05-06T15:53:03.686Z,1.50
2023-05-06T15:55:42.368Z,1.60
2023-05-06T15:58:14.346Z,2.00
2023-05-06T16:00:43.391Z,1.60
2023-05-06T16:03:12.575Z,1.80
2023-05-06T16:05:41.846Z,2.70
2023-05-06T16:08:11.275Z,1.70
2023-05-06T16:10:40.442Z,1.80
2023-05-06T16:13:09.485Z,1.60
2023-05-06T16:15:38.538Z,1.70
2023-05-06T16:18:07.625Z,1.80
2023-05-06T16:20:36.588Z,2.30
2023-05-06T16:23:06.466Z,3.20
2023-05-06T16:25:35.358Z,2.30
2023-05-06T16:28:09.030Z,2.10
2023-05-06T16:30:37.908Z,2.20
2023-05-06T16:33:06.737Z,1.90
2023-05-06T16:35:35.667Z,2.10
2023-05-06T16:38:04.405Z,2.40
2023-05-06T16:40:40.547Z,2.10
2023-05-06T16:43:09.937Z,2.20
2023-05-06T16:45:40.007Z,2.40
2023-05-06T16:48:08.739Z,2.20
2023-05-06T16:50:37.516Z,2.10
2023-05-06T16:53:10.419Z,2.30
2023-05-06T16:55:39.194Z,3.20
2023-05-06T16:58:07.886Z,2.30
2023-05-06T17:00:37.058Z,2.40
2023-05-06T17:03:06.149Z,3.00
2023-05-06T17:05:35.449Z,2.60
2023-05-06T17:08:04.683Z,3.10
2023-05-06T17:10:33.486Z,2.80
2023-05-06T17:13:02.769Z,2.60
2023-05-06T17:15:32.034Z,2.60
2023-05-06T17:18:00.988Z,3.10
2023-05-06T17:20:29.966Z,3.20
2023-05-06T17:22:58.875Z,2.80
2023-05-06T17:25:27.711Z,2.80
2023-05-06T17:27:56.653Z,2.80
2023-05-06T17:30:25.644Z,2.70
2023-05-06T17:32:55.169Z,2.60
2023-05-06T17:35:23.937Z,2.70
2023-05-06T17:37:55.182Z,3.10
2023-05-06T17:40:24.823Z,2.50
2023-05-06T17:42:53.586Z,3.00
2023-05-06T17:45:22.348Z,4.50
2023-05-06T17:47:51.615Z,3.30
2023-05-06T17:50:20.582Z,2.90
2023-05-06T17:52:52.554Z,3.10
2023-05-06T17:55:24.417Z,8.10
2023-05-06T17:57:53.763Z,11.10
2023-05-06T18:00:22.660Z,3.20
2023-05-06T18:02:51.466Z,5.20
2023-05-06T18:05:20.296Z,3.30
2023-05-06T18:07:48.971Z,2.90
2023-05-06T18:10:19.141Z,3.40
2023-05-06T18:12:48.234Z,3.20
2023-05-06T18:15:17.061Z,2.90
2023-05-06T18:17:46.223Z,2.90
2023-05-06T18:20:15.062Z,3.00
2023-05-06T18:22:43.747Z,3.10
2023-05-06T18:25:12.610Z,3.30
2023-05-06T18:27:41.729Z,3.80
2023-05-06T18:30:11.136Z,3.40
2023-05-06T18:32:39.889Z,3.10
2023-05-06T18:35:11.079Z,3.40
2023-05-06T18:37:40.174Z,2.80
2023-05-06T18:40:09.443Z,3.00
2023-05-06T18:42:38.170Z,3.00
2023-05-06T18:45:07.869Z,3.00
2023-05-06T18:47:37.770Z,3.10
2023-05-06T18:50:08.864Z,3.80
2023-05-06T18:52:37.814Z,3.60
2023-05-06T18:55:07.744Z,2.80
2023-05-06T18:57:36.502Z,3.20
2023-05-06T19:00:07.377Z,3.40
2023-05-06T19:02:36.058Z,3.00
2023-05-06T19:05:06.473Z,3.10
2023-05-06T19:07:35.267Z,3.10
2023-05-06T19:10:04.428Z,3.10
2023-05-06T19:12:38.985Z,3.20
2023-05-06T19:15:08.934Z,3.00
2023-05-06T19:17:38.516Z,3.50
2023-05-06T19:20:08.661Z,3.70
2023-05-06T19:22:38.289Z,3.40
2023-05-06T19:25:07.997Z,3.50
2023-05-06T19:27:36.929Z,4.00
2023-05-06T19:30:09.505Z,3.40
2023-05-06T19:32:38.558Z,3.50
2023-05-06T19:35:08.575Z,3.30
2023-05-06T19:37:38.529Z,3.20
2023-05-06T19:40:08.282Z,3.60
2023-05-06T19:42:37.034Z,3.40
2023-05-06T19:45:09.855Z,3.30
2023-05-06T19:47:38.939Z,4.00
2023-05-06T19:50:08.796Z,3.60
2023-05-06T19:52:37.824Z,4.60
2023-05-06T19:55:07.494Z,4.70
2023-05-06T19:57:37.236Z,4.40
2023-05-06T20:00:10.362Z,4.00
2023-05-06T20:02:39.309Z,3.60
2023-05-06T20:05:09.284Z,3.50
2023-05-06T20:07:38.641Z,3.60
2023-05-06T20:10:10.194Z,3.40
2023-05-06T20:12:39.276Z,3.40
2023-05-06T20:15:09.619Z,3.50
2023-05-06T20:17:38.899Z,3.50
2023-05-06T20:20:11.797Z,3.70
2023-05-06T20:22:41.093Z,3.70
2023-05-06T20:25:17.656Z,3.60
2023-05-06T20:27:46.559Z,3.80
2023-05-06T20:30:15.460Z,3.30
2023-05-06T20:32:44.352Z,3.70
2023-05-06T20:35:13.481Z,3.80
2023-05-06T20:37:42.770Z,3.20
2023-05-06T20:40:12.112Z,3.80
2023-05-06T20:42:40.921Z,3.40
2023-05-06T20:45:10.307Z,3.20
2023-05-06T20:47:39.228Z,3.40
2023-05-06T20:50:08.436Z,3.40
2023-05-06T20:52:37.288Z,3.90
2023-05-06T20:55:07.382Z,3.30
2023-05-06T20:57:42.313Z,4.00
2023-05-06T21:00:12.027Z,3.90
2023-05-06T21:02:42.322Z,3.20
2023-05-06T21:05:11.615Z,3.50
2023-05-06T21:07:40.809Z,3.50
2023-05-06T21:10:11.338Z,3.30
2023-05-06T21:12:40.407Z,3.90
2023-05-06T21:15:09.972Z,3.10
2023-05-06T21:17:39.059Z,3.80
2023-05-06T21:20:08.694Z,5.00
2023-05-06T21:22:37.478Z,3.20
2023-05-06T21:25:07.118Z,3.30
2023-05-06T21:27:35.799Z,3.50
2023-05-06T21:30:05.060Z,3.30
2023-05-06T21:32:33.773Z,3.60
2023-05-06T21:35:02.710Z,3.10
2023-05-06T21:37:31.459Z,2.90
2023-05-06T21:40:02.904Z,2.80
2023-05-06T21:42:31.635Z,3.10
2023-05-06T21:45:00.319Z,2.50
2023-05-06T21:47:28.957Z,2.80
2023-05-06T21:49:57.631Z,2.90
2023-05-06T21:52:26.270Z,2.50
2023-05-06T21:54:55.064Z,2.60
2023-05-06T21:57:23.741Z,2.60
2023-05-06T21:59:52.647Z,2.40
2023-05-06T22:04:50.004Z,2.70
2023-05-06T22:07:18.857Z,2.30
2023-05-06T22:09:47.567Z,2.10
2023-05-06T22:12:16.294Z,2.70
2023-05-06T22:14:44.951Z,2.40
2023-05-06T22:17:13.640Z,2.20
2023-05-06T22:19:42.338Z,2.30
2023-05-06T22:22:11.489Z,2.20
2023-05-06T22:24:40.117Z,2.20
2023-05-06T22:27:08.799Z,2.50
2023-05-06T22:29:37.479Z,2.20
2023-05-06T22:32:06.568Z,2.40
2023-05-06T22:34:35.327Z,2.60
2023-05-06T22:37:09.966Z,2.30
2023-05-06T22:39:39.427Z,2.30
2023-05-06T22:42:08.963Z,2.00
2023-05-06T22:44:37.648Z,3.20
2023-05-06T22:47:06.528Z,2.40
2023-05-06T22:49:36.570Z,2.00
2023-05-06T22:52:05.362Z,2.20
2023-05-06T22:54:34.493Z,2.30
2023-05-06T22:57:03.161Z,2.70
2023-05-06T22:59:31.840Z,2.00
2023-05-06T23:02:00.503Z,2.50
2023-05-06T23:04:29.193Z,2.30
2023-05-06T23:06:57.938Z,2.40
2023-05-06T23:09:26.617Z,2.70
2023-05-06T23:11:55.340Z,2.20
2023-05-06T23:14:24.258Z,2.40
2023-05-06T23:16:52.996Z,2.30
2023-05-06T23:19:21.998Z,2.20
2023-05-06T23:21:50.671Z,1.90
2023-05-06T23:24:19.356Z,2.10
2023-05-06T23:26:48.032Z,2.20
2023-05-06T23:29:16.691Z,2.00
2023-05-06T23:31:45.773Z,2.00
2023-05-06T23:34:14.491Z,2.50
2023-05-06T23:36:43.226Z,2.10
2023-05-06T23:39:12.380Z,2.20
2023-05-06T23:41:41.212Z,2.60
2023-05-06T23:44:09.942Z,2.00
2023-05-06T23:46:38.813Z,2.00
2023-05-06T23:49:07.578Z,2.30
2023-05-06T23:51:36.352Z,1.90
2023-05-06T23:54:05.004Z,2.40
2023-05-06T23:56:33.580Z,2.00
2023-05-06T23:59:02.260Z,2.30
